CYXL

Sioux Lookout Airport

Sioux Lookout, Ontario, Canada
TAF CYXL 251338Z 2514/2602 27005KT 1SM -DZ BR OVC002 TEMPO 2514/2516 P6SM -RA OVC030 FM251600 27008KT P6SM OVC012 TEMPO 2516/2518 4SM -SHRA BR OVC006 FM251800 27008KT P6SM -SHRA OVC020 TEMPO 2518/2524 P6SM NSW OVC030 FM260000 30012KT P6SM -SHRA OVC015 RMK NXT FCST BY 252000Z
Issued Valid From Valid To
Sep-25 @ 13:38 UTC
(3 hours ago)
Sep-25 @ 14:00 UTC
(3 hours ago)
Sep-26 @ 02:00 UTC
(in 9 hours)
Expired Click to View Sep-25 @ 14:00 to Sep-25 @ 16:00
TAF CYXL 251338Z 2514/2602 27005KT 1SM -DZ BR OVC002
Wind Visibility Clouds Conditions
270° at 5 knots 1 miles
  • Overcast at 200' AGL
  • Light Drizzle
  • Mist
Expired Click to View Sep-25 @ 14:00 to Sep-25 @ 16:00
TEMPO 2514/2516 P6SM -RA OVC030
Visibility Clouds Conditions
Greater than 6 miles
  • Overcast at 3,000' AGL
  • Light Rain
From Sep-25 @ 16:00 to Sep-25 @ 18:00
FM251600 27008KT P6SM OVC012
Wind Visibility Clouds
270° at 8 knots Greater than 6 miles
  • Overcast at 1,200' AGL
Temporary Sep-25 @ 16:00 to Sep-25 @ 18:00
TEMPO 2516/2518 4SM -SHRA BR OVC006
Visibility Clouds Conditions
4 miles
  • Overcast at 600' AGL
  • Light Rain
  • Mist
Temporary Sep-25 @ 18:00 to Sep-26 @ 00:00
TEMPO 2518/2524 P6SM NSW OVC030
Visibility Clouds Conditions
Greater than 6 miles
  • Overcast at 3,000' AGL
From Sep-25 @ 18:00 to Sep-26 @ 00:00
FM251800 27008KT P6SM -SHRA OVC020
Wind Visibility Clouds Conditions
270° at 8 knots Greater than 6 miles
  • Overcast at 2,000' AGL
  • Light Rain
From Sep-26 @ 00:00 to Sep-26 @ 02:00
FM260000 30012KT P6SM -SHRA OVC015 RMK NXT FCST BY 252000Z
Wind Visibility Clouds Conditions
300° at 12 knots Greater than 6 miles
  • Overcast at 1,500' AGL
  • Light Rain
TAF CYXL 251338Z 2514/2602 27005KT 1SM -DZ BR OVC002 TEMPO 2514/2516 P6SM -RA OVC030 FM251600 27008KT P6SM OVC012 TEMPO 2516/2518 4SM -SHRA BR OVC006 FM251800 27008KT P6SM -SHRA OVC020 TEMPO 2518/2524 P6SM NSW OVC030 FM260000 30012KT P6SM -SHRA OVC015 RMK NXT FCST BY 252000Z
Issued Sep-25 @ 13:38 UTC
(3 hours ago)
Valid From Sep-25 @ 14:00 UTC
(3 hours ago)
Valid To Sep-26 @ 02:00 UTC
(in 9 hours)
Sep-25 @ 14:00 - Sep-25 @ 16:00
Wind Visibility
270° at 5 knots 1 miles
Clouds
  • Overcast at 200' AGL
Conditions
  • Light Drizzle
  • Mist
Sep-25 @ 14:00 - Sep-25 @ 16:00
Clouds
  • Overcast at 3,000' AGL
Conditions
  • Light Rain
From Sep-25 @ 16:00 - Sep-25 @ 18:00
Wind Visibility
270° at 8 knots Greater than 6 miles
Clouds
  • Overcast at 1,200' AGL
Temporary Sep-25 @ 16:00 - Sep-25 @ 18:00
Clouds
  • Overcast at 600' AGL
Conditions
  • Light Rain
  • Mist
Temporary Sep-25 @ 18:00 - Sep-26 @ 00:00
Clouds
  • Overcast at 3,000' AGL
Conditions
From Sep-25 @ 18:00 - Sep-26 @ 00:00
Wind Visibility
270° at 8 knots Greater than 6 miles
Clouds
  • Overcast at 2,000' AGL
Conditions
  • Light Rain
From Sep-26 @ 00:00 - Sep-26 @ 02:00
Wind Visibility
300° at 12 knots Greater than 6 miles
Clouds
  • Overcast at 1,500' AGL
Conditions
  • Light Rain